sensor_id;sensor_type;location;lat;lon;timestamp;temperature;humidity
38592;DHT22;24356;48.460;11.450;2023-04-15T00:00:05;5.10;85.20
38592;DHT22;24356;48.460;11.450;2023-04-15T00:02:33;5.00;85.10
38592;DHT22;24356;48.460;11.450;2023-04-15T00:04:58;5.00;85.30
38592;DHT22;24356;48.460;11.450;2023-04-15T00:07:24;5.00;85.30
38592;DHT22;24356;48.460;11.450;2023-04-15T00:09:49;5.00;85.20
38592;DHT22;24356;48.460;11.450;2023-04-15T00:12:19;5.00;85.20
38592;DHT22;24356;48.460;11.450;2023-04-15T00:14:46;4.90;85.20
38592;DHT22;24356;48.460;11.450;2023-04-15T00:17:11;5.00;85.20
38592;DHT22;24356;48.460;11.450;2023-04-15T00:19:38;4.90;85.20
38592;DHT22;24356;48.460;11.450;2023-04-15T00:22:05;4.90;85.20
38592;DHT22;24356;48.460;11.450;2023-04-15T00:24:31;4.90;85.30
38592;DHT22;24356;48.460;11.450;2023-04-15T00:26:57;4.90;85.20
38592;DHT22;24356;48.460;11.450;2023-04-15T00:29:23;4.90;85.20
38592;DHT22;24356;48.460;11.450;2023-04-15T00:31:48;4.90;85.10
38592;DHT22;24356;48.460;11.450;2023-04-15T00:34:14;4.90;85.30
38592;DHT22;24356;48.460;11.450;2023-04-15T00:36:40;4.90;85.20
38592;DHT22;24356;48.460;11.450;2023-04-15T00:39:05;4.90;85.10
38592;DHT22;24356;48.460;11.450;2023-04-15T00:41:31;4.90;85.00
38592;DHT22;24356;48.460;11.450;2023-04-15T00:43:58;4.90;85.10
38592;DHT22;24356;48.460;11.450;2023-04-15T00:46:26;4.90;85.00
38592;DHT22;24356;48.460;11.450;2023-04-15T00:48:53;4.90;85.00
38592;DHT22;24356;48.460;11.450;2023-04-15T00:51:19;4.90;85.20
38592;DHT22;24356;48.460;11.450;2023-04-15T00:53:45;4.90;84.90
38592;DHT22;24356;48.460;11.450;2023-04-15T00:56:12;4.90;85.00
38592;DHT22;24356;48.460;11.450;2023-04-15T00:58:38;4.90;85.10
38592;DHT22;24356;48.460;11.450;2023-04-15T01:01:04;4.90;85.10
38592;DHT22;24356;48.460;11.450;2023-04-15T01:03:31;4.90;85.20
38592;DHT22;24356;48.460;11.450;2023-04-15T01:05:57;4.90;85.10
38592;DHT22;24356;48.460;11.450;2023-04-15T01:08:27;4.90;85.10
38592;DHT22;24356;48.460;11.450;2023-04-15T01:10:55;4.90;85.00
38592;DHT22;24356;48.460;11.450;2023-04-15T01:13:23;4.90;85.00
38592;DHT22;24356;48.460;11.450;2023-04-15T01:15:49;4.90;85.30
38592;DHT22;24356;48.460;11.450;2023-04-15T01:18:16;4.90;85.20
38592;DHT22;24356;48.460;11.450;2023-04-15T01:20:44;4.90;85.20
38592;DHT22;24356;48.460;11.450;2023-04-15T01:23:11;4.90;85.30
38592;DHT22;24356;48.460;11.450;2023-04-15T01:25:37;4.90;85.60
38592;DHT22;24356;48.460;11.450;2023-04-15T01:28:04;4.90;85.30
38592;DHT22;24356;48.460;11.450;2023-04-15T01:30:33;4.90;85.20
38592;DHT22;24356;48.460;11.450;2023-04-15T01:32:59;4.90;85.20
38592;DHT22;24356;48.460;11.450;2023-04-15T01:35:26;4.90;85.10
38592;DHT22;24356;48.460;11.450;2023-04-15T01:37:53;4.90;85.10
38592;DHT22;24356;48.460;11.450;2023-04-15T01:40:20;4.90;85.20
38592;DHT22;24356;48.460;11.450;2023-04-15T01:42:47;4.90;85.20
38592;DHT22;24356;48.460;11.450;2023-04-15T01:45:12;4.90;85.30
38592;DHT22;24356;48.460;11.450;2023-04-15T01:47:38;4.90;85.30
38592;DHT22;24356;48.460;11.450;2023-04-15T01:50:04;4.90;85.30
38592;DHT22;24356;48.460;11.450;2023-04-15T01:52:32;4.90;85.20
38592;DHT22;24356;48.460;11.450;2023-04-15T01:54:58;4.90;85.20
38592;DHT22;24356;48.460;11.450;2023-04-15T01:57:23;4.90;85.20
38592;DHT22;24356;48.460;11.450;2023-04-15T01:59:49;4.90;85.20
38592;DHT22;24356;48.460;11.450;2023-04-15T02:02:16;4.90;85.30
38592;DHT22;24356;48.460;11.450;2023-04-15T02:04:43;4.90;85.30
38592;DHT22;24356;48.460;11.450;2023-04-15T02:07:09;4.90;85.30
38592;DHT22;24356;48.460;11.450;2023-04-15T02:09:34;4.90;85.30
38592;DHT22;24356;48.460;11.450;2023-04-15T02:12:02;4.90;85.20
38592;DHT22;24356;48.460;11.450;2023-04-15T02:14:27;4.90;85.30
38592;DHT22;24356;48.460;11.450;2023-04-15T02:16:53;4.90;85.30
38592;DHT22;24356;48.460;11.450;2023-04-15T02:19:18;4.90;85.20
38592;DHT22;24356;48.460;11.450;2023-04-15T02:21:44;4.90;85.20
38592;DHT22;24356;48.460;11.450;2023-04-15T02:24:09;4.90;85.30
38592;DHT22;24356;48.460;11.450;2023-04-15T02:26:38;4.90;85.40
38592;DHT22;24356;48.460;11.450;2023-04-15T02:29:04;4.90;85.20
38592;DHT22;24356;48.460;11.450;2023-04-15T02:31:29;4.90;85.30
38592;DHT22;24356;48.460;11.450;2023-04-15T02:34:01;4.90;85.40
38592;DHT22;24356;48.460;11.450;2023-04-15T02:36:29;4.90;85.60
38592;DHT22;24356;48.460;11.450;2023-04-15T02:38:55;4.90;85.50
38592;DHT22;24356;48.460;11.450;2023-04-15T02:41:22;4.90;85.40
38592;DHT22;24356;48.460;11.450;2023-04-15T02:43:51;4.90;85.40
38592;DHT22;24356;48.460;11.450;2023-04-15T02:46:18;4.90;85.30
38592;DHT22;24356;48.460;11.450;2023-04-15T02:48:43;4.90;85.30
38592;DHT22;24356;48.460;11.450;2023-04-15T02:51:14;4.90;85.30
38592;DHT22;24356;48.460;11.450;2023-04-15T02:53:39;4.80;85.30
38592;DHT22;24356;48.460;11.450;2023-04-15T02:56:06;4.80;85.40
38592;DHT22;24356;48.460;11.450;2023-04-15T02:58:33;4.80;85.30
38592;DHT22;24356;48.460;11.450;2023-04-15T03:00:59;4.80;85.40
38592;DHT22;24356;48.460;11.450;2023-04-15T03:03:25;4.80;85.40
38592;DHT22;24356;48.460;11.450;2023-04-15T03:05:53;4.80;85.50
38592;DHT22;24356;48.460;11.450;2023-04-15T03:08:19;4.80;85.50
38592;DHT22;24356;48.460;11.450;2023-04-15T03:10:48;4.80;85.50
38592;DHT22;24356;48.460;11.450;2023-04-15T03:13:16;4.80;85.40
38592;DHT22;24356;48.460;11.450;2023-04-15T03:15:42;4.80;85.40
38592;DHT22;24356;48.460;11.450;2023-04-15T03:18:08;4.80;85.30
38592;DHT22;24356;48.460;11.450;2023-04-15T03:20:33;4.80;85.30
38592;DHT22;24356;48.460;11.450;2023-04-15T03:23:00;4.80;85.20
38592;DHT22;24356;48.460;11.450;2023-04-15T03:25:25;4.80;85.30
38592;DHT22;24356;48.460;11.450;2023-04-15T03:27:51;4.80;85.30
38592;DHT22;24356;48.460;11.450;2023-04-15T03:30:19;4.80;85.30
38592;DHT22;24356;48.460;11.450;2023-04-15T03:32:44;4.80;85.20
38592;DHT22;24356;48.460;11.450;2023-04-15T03:35:10;4.80;85.30
38592;DHT22;24356;48.460;11.450;2023-04-15T03:37:36;4.80;85.30
38592;DHT22;24356;48.460;11.450;2023-04-15T03:40:02;4.80;85.30
38592;DHT22;24356;48.460;11.450;2023-04-15T03:42:28;4.80;85.30
38592;DHT22;24356;48.460;11.450;2023-04-15T03:44:54;4.80;85.30
38592;DHT22;24356;48.460;11.450;2023-04-15T03:47:20;4.80;85.30
38592;DHT22;24356;48.460;11.450;2023-04-15T03:49:45;4.80;85.30
38592;DHT22;24356;48.460;11.450;2023-04-15T03:52:11;4.80;85.40
38592;DHT22;24356;48.460;11.450;2023-04-15T03:54:38;4.80;85.40
38592;DHT22;24356;48.460;11.450;2023-04-15T03:57:04;4.80;85.50
38592;DHT22;24356;48.460;11.450;2023-04-15T03:59:30;4.80;85.50
38592;DHT22;24356;48.460;11.450;2023-04-15T04:01:56;4.80;85.50
38592;DHT22;24356;48.460;11.450;2023-04-15T04:04:22;4.80;85.70
38592;DHT22;24356;48.460;11.450;2023-04-15T04:06:47;4.80;85.70
38592;DHT22;24356;48.460;11.450;2023-04-15T04:09:13;4.80;85.80
38592;DHT22;24356;48.460;11.450;2023-04-15T04:11:38;4.80;85.90
38592;DHT22;24356;48.460;11.450;2023-04-15T04:14:04;4.80;85.90
38592;DHT22;24356;48.460;11.450;2023-04-15T04:16:30;4.80;85.90
38592;DHT22;24356;48.460;11.450;2023-04-15T04:18:56;4.80;85.90
38592;DHT22;24356;48.460;11.450;2023-04-15T04:21:21;4.80;85.70
38592;DHT22;24356;48.460;11.450;2023-04-15T04:23:47;4.80;85.60
38592;DHT22;24356;48.460;11.450;2023-04-15T04:26:12;4.80;85.80
38592;DHT22;24356;48.460;11.450;2023-04-15T04:28:39;4.80;85.70
38592;DHT22;24356;48.460;11.450;2023-04-15T04:31:07;4.80;85.60
38592;DHT22;24356;48.460;11.450;2023-04-15T04:33:32;4.70;85.60
38592;DHT22;24356;48.460;11.450;2023-04-15T04:35:58;4.70;85.60
38592;DHT22;24356;48.460;11.450;2023-04-15T04:38:24;4.80;85.60
38592;DHT22;24356;48.460;11.450;2023-04-15T04:40:50;4.70;85.60
38592;DHT22;24356;48.460;11.450;2023-04-15T04:43:15;4.70;85.70
38592;DHT22;24356;48.460;11.450;2023-04-15T04:45:41;4.70;85.70
38592;DHT22;24356;48.460;11.450;2023-04-15T04:48:07;4.70;85.70
38592;DHT22;24356;48.460;11.450;2023-04-15T04:50:35;4.70;85.60
38592;DHT22;24356;48.460;11.450;2023-04-15T04:53:01;4.70;85.60
38592;DHT22;24356;48.460;11.450;2023-04-15T04:55:26;4.70;85.50
38592;DHT22;24356;48.460;11.450;2023-04-15T04:57:52;4.70;85.40
38592;DHT22;24356;48.460;11.450;2023-04-15T05:00:18;4.70;85.60
38592;DHT22;24356;48.460;11.450;2023-04-15T05:02:45;4.70;85.50
38592;DHT22;24356;48.460;11.450;2023-04-15T05:05:11;4.70;85.70
38592;DHT22;24356;48.460;11.450;2023-04-15T05:07:37;4.70;85.60
38592;DHT22;24356;48.460;11.450;2023-04-15T05:10:04;4.70;85.50
38592;DHT22;24356;48.460;11.450;2023-04-15T05:12:30;4.70;85.50
38592;DHT22;24356;48.460;11.450;2023-04-15T05:14:58;4.70;85.50
38592;DHT22;24356;48.460;11.450;2023-04-15T05:17:23;4.70;85.50
38592;DHT22;24356;48.460;11.450;2023-04-15T05:19:49;4.70;85.60
38592;DHT22;24356;48.460;11.450;2023-04-15T05:22:15;4.70;85.50
38592;DHT22;24356;48.460;11.450;2023-04-15T05:24:40;4.70;85.50
38592;DHT22;24356;48.460;11.450;2023-04-15T05:27:06;4.80;85.70
38592;DHT22;24356;48.460;11.450;2023-04-15T05:29:33;4.80;85.60
38592;DHT22;24356;48.460;11.450;2023-04-15T05:32:00;4.80;85.50
38592;DHT22;24356;48.460;11.450;2023-04-15T05:34:25;4.80;85.50
38592;DHT22;24356;48.460;11.450;2023-04-15T05:36:51;4.80;85.40
38592;DHT22;24356;48.460;11.450;2023-04-15T05:39:17;4.80;85.60
38592;DHT22;24356;48.460;11.450;2023-04-15T05:41:43;4.80;85.30
38592;DHT22;24356;48.460;11.450;2023-04-15T05:44:08;4.90;85.20
38592;DHT22;24356;48.460;11.450;2023-04-15T05:46:34;4.90;85.40
38592;DHT22;24356;48.460;11.450;2023-04-15T05:49:00;4.90;85.20
38592;DHT22;24356;48.460;11.450;2023-04-15T05:51:25;4.90;85.20
38592;DHT22;24356;48.460;11.450;2023-04-15T05:53:51;4.90;85.30
38592;DHT22;24356;48.460;11.450;2023-04-15T05:56:17;5.00;85.30
38592;DHT22;24356;48.460;11.450;2023-04-15T05:58:43;5.00;85.10
38592;DHT22;24356;48.460;11.450;2023-04-15T06:01:08;5.00;85.30
38592;DHT22;24356;48.460;11.450;2023-04-15T06:03:34;5.10;85.30
38592;DHT22;24356;48.460;11.450;2023-04-15T06:05:59;5.10;85.50
38592;DHT22;24356;48.460;11.450;2023-04-15T06:08:25;5.10;85.50
38592;DHT22;24356;48.460;11.450;2023-04-15T06:10:52;5.20;85.30
38592;DHT22;24356;48.460;11.450;2023-04-15T06:13:17;5.20;85.20
38592;DHT22;24356;48.460;11.450;2023-04-15T06:15:43;5.20;85.20
38592;DHT22;24356;48.460;11.450;2023-04-15T06:18:09;5.20;85.20
38592;DHT22;24356;48.460;11.450;2023-04-15T06:20:36;5.20;85.10
38592;DHT22;24356;48.460;11.450;2023-04-15T06:23:02;5.30;85.50
38592;DHT22;24356;48.460;11.450;2023-04-15T06:25:27;5.30;85.10
38592;DHT22;24356;48.460;11.450;2023-04-15T06:27:53;5.30;85.10
38592;DHT22;24356;48.460;11.450;2023-04-15T06:30:18;5.30;84.90
38592;DHT22;24356;48.460;11.450;2023-04-15T06:32:44;5.40;85.20
38592;DHT22;24356;48.460;11.450;2023-04-15T06:35:10;5.40;85.40
38592;DHT22;24356;48.460;11.450;2023-04-15T06:37:37;5.50;85.50
38592;DHT22;24356;48.460;11.450;2023-04-15T06:40:03;5.50;85.20
38592;DHT22;24356;48.460;11.450;2023-04-15T06:42:30;5.50;85.10
38592;DHT22;24356;48.460;11.450;2023-04-15T06:44:55;5.60;85.10
38592;DHT22;24356;48.460;11.450;2023-04-15T06:47:22;5.70;85.40
38592;DHT22;24356;48.460;11.450;2023-04-15T06:49:48;5.70;85.00
38592;DHT22;24356;48.460;11.450;2023-04-15T06:52:13;5.90;85.50
38592;DHT22;24356;48.460;11.450;2023-04-15T06:54:41;6.00;85.30
38592;DHT22;24356;48.460;11.450;2023-04-15T06:57:06;6.10;85.10
38592;DHT22;24356;48.460;11.450;2023-04-15T06:59:33;6.20;85.00
38592;DHT22;24356;48.460;11.450;2023-04-15T07:01:59;6.30;85.00
38592;DHT22;24356;48.460;11.450;2023-04-15T07:04:24;6.40;85.10
38592;DHT22;24356;48.460;11.450;2023-04-15T07:06:50;6.50;84.80
38592;DHT22;24356;48.460;11.450;2023-04-15T07:09:16;6.60;84.50
38592;DHT22;24356;48.460;11.450;2023-04-15T07:11:41;6.70;84.50
38592;DHT22;24356;48.460;11.450;2023-04-15T07:14:07;6.80;84.70
38592;DHT22;24356;48.460;11.450;2023-04-15T07:16:32;6.80;84.60
38592;DHT22;24356;48.460;11.450;2023-04-15T07:18:58;7.00;84.60
38592;DHT22;24356;48.460;11.450;2023-04-15T07:21:24;7.00;84.30
38592;DHT22;24356;48.460;11.450;2023-04-15T07:23:50;7.10;84.00
38592;DHT22;24356;48.460;11.450;2023-04-15T07:26:15;7.20;84.10
38592;DHT22;24356;48.460;11.450;2023-04-15T07:28:41;7.30;84.30
38592;DHT22;24356;48.460;11.450;2023-04-15T07:31:06;7.30;84.00
38592;DHT22;24356;48.460;11.450;2023-04-15T07:33:32;7.40;84.00
38592;DHT22;24356;48.460;11.450;2023-04-15T07:35:58;7.60;83.80
38592;DHT22;24356;48.460;11.450;2023-04-15T07:38:23;7.70;83.60
38592;DHT22;24356;48.460;11.450;2023-04-15T07:40:50;7.80;83.60
38592;DHT22;24356;48.460;11.450;2023-04-15T07:43:16;7.90;83.40
38592;DHT22;24356;48.460;11.450;2023-04-15T07:45:43;8.00;83.40
38592;DHT22;24356;48.460;11.450;2023-04-15T07:48:08;8.10;83.20
38592;DHT22;24356;48.460;11.450;2023-04-15T07:50:34;8.30;83.00
38592;DHT22;24356;48.460;11.450;2023-04-15T07:52:59;8.30;82.80
38592;DHT22;24356;48.460;11.450;2023-04-15T07:55:25;8.40;82.60
38592;DHT22;24356;48.460;11.450;2023-04-15T07:57:51;8.40;82.40
38592;DHT22;24356;48.460;11.450;2023-04-15T08:00:16;8.40;82.30
38592;DHT22;24356;48.460;11.450;2023-04-15T08:02:42;8.50;82.50
38592;DHT22;24356;48.460;11.450;2023-04-15T08:05:09;8.60;82.50
38592;DHT22;24356;48.460;11.450;2023-04-15T08:07:36;8.70;82.60
38592;DHT22;24356;48.460;11.450;2023-04-15T08:10:03;8.70;82.20
38592;DHT22;24356;48.460;11.450;2023-04-15T08:12:28;8.80;82.30
38592;DHT22;24356;48.460;11.450;2023-04-15T08:14:55;8.90;82.20
38592;DHT22;24356;48.460;11.450;2023-04-15T08:17:22;8.90;82.10
38592;DHT22;24356;48.460;11.450;2023-04-15T08:19:47;8.90;82.10
38592;DHT22;24356;48.460;11.450;2023-04-15T08:22:14;8.90;82.00
38592;DHT22;24356;48.460;11.450;2023-04-15T08:24:40;8.90;82.10
38592;DHT22;24356;48.460;11.450;2023-04-15T08:27:06;8.90;81.90
38592;DHT22;24356;48.460;11.450;2023-04-15T08:29:32;8.90;81.60
38592;DHT22;24356;48.460;11.450;2023-04-15T08:32:01;9.00;81.80
38592;DHT22;24356;48.460;11.450;2023-04-15T08:34:27;9.00;81.70
38592;DHT22;24356;48.460;11.450;2023-04-15T08:36:53;9.00;81.70
38592;DHT22;24356;48.460;11.450;2023-04-15T08:39:19;9.00;81.60
38592;DHT22;24356;48.460;11.450;2023-04-15T08:41:46;9.00;81.80
38592;DHT22;24356;48.460;11.450;2023-04-15T08:44:13;9.00;81.80
38592;DHT22;24356;48.460;11.450;2023-04-15T08:46:40;9.00;81.70
38592;DHT22;24356;48.460;11.450;2023-04-15T08:49:09;9.10;81.80
38592;DHT22;24356;48.460;11.450;2023-04-15T08:51:35;9.10;81.60
38592;DHT22;24356;48.460;11.450;2023-04-15T08:54:01;9.10;81.70
38592;DHT22;24356;48.460;11.450;2023-04-15T08:56:30;9.10;81.60
38592;DHT22;24356;48.460;11.450;2023-04-15T08:58:59;9.10;81.50
38592;DHT22;24356;48.460;11.450;2023-04-15T09:01:25;9.20;81.60
38592;DHT22;24356;48.460;11.450;2023-04-15T09:03:51;9.20;81.50
38592;DHT22;24356;48.460;11.450;2023-04-15T09:06:21;9.20;81.60
38592;DHT22;24356;48.460;11.450;2023-04-15T09:08:48;9.20;81.70
38592;DHT22;24356;48.460;11.450;2023-04-15T09:11:14;9.20;81.70
38592;DHT22;24356;48.460;11.450;2023-04-15T09:13:39;9.30;81.90
38592;DHT22;24356;48.460;11.450;2023-04-15T09:16:05;9.30;81.60
38592;DHT22;24356;48.460;11.450;2023-04-15T09:18:37;9.40;81.60
38592;DHT22;24356;48.460;11.450;2023-04-15T09:21:11;9.40;81.70
38592;DHT22;24356;48.460;11.450;2023-04-15T09:23:38;9.50;81.60
38592;DHT22;24356;48.460;11.450;2023-04-15T09:26:04;9.50;81.70
38592;DHT22;24356;48.460;11.450;2023-04-15T09:28:31;9.60;81.70
38592;DHT22;24356;48.460;11.450;2023-04-15T09:31:01;9.60;81.80
38592;DHT22;24356;48.460;11.450;2023-04-15T09:33:28;9.70;81.60
38592;DHT22;24356;48.460;11.450;2023-04-15T09:35:59;9.80;81.30
38592;DHT22;24356;48.460;11.450;2023-04-15T09:38:27;9.90;81.40
38592;DHT22;24356;48.460;11.450;2023-04-15T09:40:52;10.00;81.50
38592;DHT22;24356;48.460;11.450;2023-04-15T09:43:18;10.00;81.20
38592;DHT22;24356;48.460;11.450;2023-04-15T09:45:49;10.10;81.40
38592;DHT22;24356;48.460;11.450;2023-04-15T09:48:22;10.20;81.00
38592;DHT22;24356;48.460;11.450;2023-04-15T09:50:49;10.30;81.40
38592;DHT22;24356;48.460;11.450;2023-04-15T09:53:19;10.40;81.10
38592;DHT22;24356;48.460;11.450;2023-04-15T09:58:21;10.60;80.60
38592;DHT22;24356;48.460;11.450;2023-04-15T10:00:48;10.70;80.50
38592;DHT22;24356;48.460;11.450;2023-04-15T10:03:19;10.70;80.20
38592;DHT22;24356;48.460;11.450;2023-04-15T10:05:47;10.80;80.00
38592;DHT22;24356;48.460;11.450;2023-04-15T10:08:15;10.80;79.80
38592;DHT22;24356;48.460;11.450;2023-04-15T10:10:41;10.80;79.40
38592;DHT22;24356;48.460;11.450;2023-04-15T10:13:09;10.80;79.40
38592;DHT22;24356;48.460;11.450;2023-04-15T10:15:36;10.80;79.60
38592;DHT22;24356;48.460;11.450;2023-04-15T10:18:04;10.80;79.40
38592;DHT22;24356;48.460;11.450;2023-04-15T10:20:30;10.80;79.20
38592;DHT22;24356;48.460;11.450;2023-04-15T10:22:57;10.80;79.50
38592;DHT22;24356;48.460;11.450;2023-04-15T10:25:25;10.80;79.30
38592;DHT22;24356;48.460;11.450;2023-04-15T10:27:51;10.80;79.30
38592;DHT22;24356;48.460;11.450;2023-04-15T10:30:17;10.90;79.10
38592;DHT22;24356;48.460;11.450;2023-04-15T10:32:43;10.90;79.10
38592;DHT22;24356;48.460;11.450;2023-04-15T10:35:10;10.90;79.00
38592;DHT22;24356;48.460;11.450;2023-04-15T10:37:37;10.90;79.10
38592;DHT22;24356;48.460;11.450;2023-04-15T10:42:48;10.90;78.90
38592;DHT22;24356;48.460;11.450;2023-04-15T10:45:17;10.90;78.90
38592;DHT22;24356;48.460;11.450;2023-04-15T10:47:43;10.80;78.80
38592;DHT22;24356;48.460;11.450;2023-04-15T10:50:09;10.80;78.70
38592;DHT22;24356;48.460;11.450;2023-04-15T10:52:39;10.80;78.70
38592;DHT22;24356;48.460;11.450;2023-04-15T10:57:37;10.70;78.80
38592;DHT22;24356;48.460;11.450;2023-04-15T11:00:12;10.60;79.00
38592;DHT22;24356;48.460;11.450;2023-04-15T11:02:42;10.60;78.90
38592;DHT22;24356;48.460;11.450;2023-04-15T11:05:09;10.50;78.90
38592;DHT22;24356;48.460;11.450;2023-04-15T11:13:03;10.30;78.80
38592;DHT22;24356;48.460;11.450;2023-04-15T11:15:38;10.20;79.00
38592;DHT22;24356;48.460;11.450;2023-04-15T11:20:35;10.10;79.00
38592;DHT22;24356;48.460;11.450;2023-04-15T11:23:01;10.10;79.00
38592;DHT22;24356;48.460;11.450;2023-04-15T11:25:29;10.00;79.10
38592;DHT22;24356;48.460;11.450;2023-04-15T11:27:55;10.00;79.20
38592;DHT22;24356;48.460;11.450;2023-04-15T11:30:24;9.90;79.40
38592;DHT22;24356;48.460;11.450;2023-04-15T11:32:57;9.90;79.40
38592;DHT22;24356;48.460;11.450;2023-04-15T11:35:23;9.80;79.50
38592;DHT22;24356;48.460;11.450;2023-04-15T11:37:49;9.80;79.60
38592;DHT22;24356;48.460;11.450;2023-04-15T11:40:16;9.80;79.70
38592;DHT22;24356;48.460;11.450;2023-04-15T11:42:43;9.80;79.90
38592;DHT22;24356;48.460;11.450;2023-04-15T11:45:14;9.80;79.90
38592;DHT22;24356;48.460;11.450;2023-04-15T11:47:42;9.70;80.00
38592;DHT22;24356;48.460;11.450;2023-04-15T11:50:22;9.70;80.00
38592;DHT22;24356;48.460;11.450;2023-04-15T11:52:59;9.60;80.10
38592;DHT22;24356;48.460;11.450;2023-04-15T11:55:29;9.60;80.10
38592;DHT22;24356;48.460;11.450;2023-04-15T12:00:34;9.50;79.90
38592;DHT22;24356;48.460;11.450;2023-04-15T12:03:13;9.40;79.80
38592;DHT22;24356;48.460;11.450;2023-04-15T12:06:17;9.40;80.00
38592;DHT22;24356;48.460;11.450;2023-04-15T12:11:34;9.30;80.20
38592;DHT22;24356;48.460;11.450;2023-04-15T12:14:11;9.30;80.20
38592;DHT22;24356;48.460;11.450;2023-04-15T12:16:43;9.20;80.50
38592;DHT22;24356;48.460;11.450;2023-04-15T12:19:11;9.20;80.80
38592;DHT22;24356;48.460;11.450;2023-04-15T12:21:39;9.20;81.10
38592;DHT22;24356;48.460;11.450;2023-04-15T12:24:08;9.20;81.20
38592;DHT22;24356;48.460;11.450;2023-04-15T12:26:48;9.20;81.30
38592;DHT22;24356;48.460;11.450;2023-04-15T12:29:15;9.20;81.50
38592;DHT22;24356;48.460;11.450;2023-04-15T12:31:52;9.20;81.50
38592;DHT22;24356;48.460;11.450;2023-04-15T12:34:32;9.20;81.70
38592;DHT22;24356;48.460;11.450;2023-04-15T12:36:59;9.30;82.20
38592;DHT22;24356;48.460;11.450;2023-04-15T12:39:27;9.30;82.30
38592;DHT22;24356;48.460;11.450;2023-04-15T12:41:53;9.40;82.30
38592;DHT22;24356;48.460;11.450;2023-04-15T12:44:21;9.50;82.40
38592;DHT22;24356;48.460;11.450;2023-04-15T12:46:47;9.60;82.20
38592;DHT22;24356;48.460;11.450;2023-04-15T12:49:12;9.70;82.10
38592;DHT22;24356;48.460;11.450;2023-04-15T12:51:43;9.80;82.00
38592;DHT22;24356;48.460;11.450;2023-04-15T12:54:09;9.90;82.00
38592;DHT22;24356;48.460;11.450;2023-04-15T12:56:35;9.90;81.90
38592;DHT22;24356;48.460;11.450;2023-04-15T12:59:01;10.00;81.70
38592;DHT22;24356;48.460;11.450;2023-04-15T13:01:27;10.10;81.50
38592;DHT22;24356;48.460;11.450;2023-04-15T13:03:53;10.10;81.40
38592;DHT22;24356;48.460;11.450;2023-04-15T13:06:19;10.20;81.30
38592;DHT22;24356;48.460;11.450;2023-04-15T13:08:44;10.20;81.10
38592;DHT22;24356;48.460;11.450;2023-04-15T13:11:10;10.20;81.20
38592;DHT22;24356;48.460;11.450;2023-04-15T13:13:36;10.30;80.90
38592;DHT22;24356;48.460;11.450;2023-04-15T13:16:01;10.20;80.80
38592;DHT22;24356;48.460;11.450;2023-04-15T13:18:27;10.20;80.50
38592;DHT22;24356;48.460;11.450;2023-04-15T13:20:53;10.20;80.30
38592;DHT22;24356;48.460;11.450;2023-04-15T13:23:20;10.20;80.20
38592;DHT22;24356;48.460;11.450;2023-04-15T13:25:45;10.20;80.20
38592;DHT22;24356;48.460;11.450;2023-04-15T13:28:11;10.20;80.10
38592;DHT22;24356;48.460;11.450;2023-04-15T13:30:37;10.10;80.00
38592;DHT22;24356;48.460;11.450;2023-04-15T13:33:03;10.10;79.90
38592;DHT22;24356;48.460;11.450;2023-04-15T13:35:30;10.10;80.00
38592;DHT22;24356;48.460;11.450;2023-04-15T13:37:56;10.10;79.80
38592;DHT22;24356;48.460;11.450;2023-04-15T13:40:23;10.10;80.00
38592;DHT22;24356;48.460;11.450;2023-04-15T13:42:50;10.00;80.10
38592;DHT22;24356;48.460;11.450;2023-04-15T13:45:17;10.10;80.20
38592;DHT22;24356;48.460;11.450;2023-04-15T13:47:43;10.10;80.20
38592;DHT22;24356;48.460;11.450;2023-04-15T13:50:09;10.10;80.20
38592;DHT22;24356;48.460;11.450;2023-04-15T13:52:36;10.10;80.20
38592;DHT22;24356;48.460;11.450;2023-04-15T13:55:03;10.10;80.20
38592;DHT22;24356;48.460;11.450;2023-04-15T13:57:28;10.10;80.10
38592;DHT22;24356;48.460;11.450;2023-04-15T13:59:54;10.10;80.20
38592;DHT22;24356;48.460;11.450;2023-04-15T14:02:20;10.10;80.20
38592;DHT22;24356;48.460;11.450;2023-04-15T14:04:47;10.10;80.20
38592;DHT22;24356;48.460;11.450;2023-04-15T14:07:13;10.10;80.20
38592;DHT22;24356;48.460;11.450;2023-04-15T14:09:39;10.10;80.10
38592;DHT22;24356;48.460;11.450;2023-04-15T14:12:04;10.10;80.20
38592;DHT22;24356;48.460;11.450;2023-04-15T14:14:31;10.00;80.30
38592;DHT22;24356;48.460;11.450;2023-04-15T14:16:57;10.00;80.30
38592;DHT22;24356;48.460;11.450;2023-04-15T14:19:24;10.00;80.20
38592;DHT22;24356;48.460;11.450;2023-04-15T14:21:49;9.90;80.20
38592;DHT22;24356;48.460;11.450;2023-04-15T14:24:15;9.90;80.30
38592;DHT22;24356;48.460;11.450;2023-04-15T14:26:42;9.80;80.30
38592;DHT22;24356;48.460;11.450;2023-04-15T14:29:11;9.80;80.30
38592;DHT22;24356;48.460;11.450;2023-04-15T14:31:37;9.70;80.50
38592;DHT22;24356;48.460;11.450;2023-04-15T14:34:02;9.60;80.50
38592;DHT22;24356;48.460;11.450;2023-04-15T14:36:28;9.60;80.50
38592;DHT22;24356;48.460;11.450;2023-04-15T14:38:53;9.50;80.40
38592;DHT22;24356;48.460;11.450;2023-04-15T14:41:20;9.50;80.60
38592;DHT22;24356;48.460;11.450;2023-04-15T14:43:48;9.40;80.50
38592;DHT22;24356;48.460;11.450;2023-04-15T14:46:14;9.40;80.70
38592;DHT22;24356;48.460;11.450;2023-04-15T14:48:40;9.30;80.80
38592;DHT22;24356;48.460;11.450;2023-04-15T14:51:06;9.30;81.10
38592;DHT22;24356;48.460;11.450;2023-04-15T14:53:32;9.30;81.00
38592;DHT22;24356;48.460;11.450;2023-04-15T14:55:57;9.20;80.80
38592;DHT22;24356;48.460;11.450;2023-04-15T14:58:23;9.20;80.60
38592;DHT22;24356;48.460;11.450;2023-04-15T15:00:48;9.20;80.60
38592;DHT22;24356;48.460;11.450;2023-04-15T15:03:14;9.10;80.80
38592;DHT22;24356;48.460;11.450;2023-04-15T15:05:44;9.00;80.90
38592;DHT22;24356;48.460;11.450;2023-04-15T15:08:11;9.00;81.10
38592;DHT22;24356;48.460;11.450;2023-04-15T15:10:39;8.90;81.50
38592;DHT22;24356;48.460;11.450;2023-04-15T15:13:06;8.80;81.70
38592;DHT22;24356;48.460;11.450;2023-04-15T15:15:33;8.70;81.90
38592;DHT22;24356;48.460;11.450;2023-04-15T15:17:59;8.70;81.90
38592;DHT22;24356;48.460;11.450;2023-04-15T15:20:25;8.60;82.10
38592;DHT22;24356;48.460;11.450;2023-04-15T15:22:51;8.60;82.10
38592;DHT22;24356;48.460;11.450;2023-04-15T15:25:17;8.50;82.30
38592;DHT22;24356;48.460;11.450;2023-04-15T15:27:42;8.50;82.30
38592;DHT22;24356;48.460;11.450;2023-04-15T15:30:09;8.40;82.30
38592;DHT22;24356;48.460;11.450;2023-04-15T15:32:35;8.40;82.30
38592;DHT22;24356;48.460;11.450;2023-04-15T15:35:01;8.30;82.40
38592;DHT22;24356;48.460;11.450;2023-04-15T15:37:26;8.30;82.30
38592;DHT22;24356;48.460;11.450;2023-04-15T15:39:54;8.30;82.20
38592;DHT22;24356;48.460;11.450;2023-04-15T15:42:21;8.20;82.30
38592;DHT22;24356;48.460;11.450;2023-04-15T15:44:48;8.20;82.20